createdAt,value
2023-03-04T00:00:59.428Z,97696.56
2023-03-04T00:03:27.751Z,97696.97
2023-03-04T00:05:55.980Z,97699.72
2023-03-04T00:08:24.225Z,97700.63
2023-03-04T00:10:54.044Z,97705.22
2023-03-04T00:13:22.359Z,97706.72
2023-03-04T00:15:50.653Z,97697.16
2023-03-04T00:18:18.917Z,97699.81
2023-03-04T00:20:47.141Z,97698.91
2023-03-04T00:23:15.352Z,97705.09
2023-03-04T00:25:43.780Z,97702.16
2023-03-04T00:28:13.364Z,97701.84
2023-03-04T00:30:41.816Z,97708.00
2023-03-04T00:33:10.098Z,97705.47
2023-03-04T00:35:38.351Z,97700.03
2023-03-04T00:38:06.589Z,97709.03
2023-03-04T00:40:34.945Z,97707.44
2023-03-04T00:43:04.043Z,97705.31
2023-03-04T00:45:33.667Z,97705.97
2023-03-04T00:48:01.954Z,97699.09
2023-03-04T00:50:30.306Z,97702.56
2023-03-04T00:52:58.668Z,97710.88
2023-03-04T00:55:26.976Z,97704.97
2023-03-04T00:57:55.354Z,97701.44
2023-03-04T01:00:24.168Z,97698.25
2023-03-04T01:02:53.798Z,97693.63
2023-03-04T01:05:22.021Z,97694.13
2023-03-04T01:07:50.345Z,97685.22
2023-03-04T01:10:19.378Z,97689.00
2023-03-04T01:12:47.608Z,97679.06
2023-03-04T01:15:16.242Z,97677.00
2023-03-04T01:17:44.526Z,97675.31
2023-03-04T01:20:14.702Z,97677.66
2023-03-04T01:22:43.083Z,97672.19
2023-03-04T01:25:11.594Z,97664.88
2023-03-04T01:27:39.836Z,97664.78
2023-03-04T01:30:08.972Z,97660.06
2023-03-04T01:32:37.187Z,97668.44
2023-03-04T01:35:05.887Z,97661.31
2023-03-04T01:37:35.644Z,97664.75
2023-03-04T01:40:05.521Z,97666.63
2023-03-04T01:42:35.667Z,97667.97
2023-03-04T01:45:04.952Z,97660.78
2023-03-04T01:47:33.936Z,97668.88
2023-03-04T01:50:03.695Z,97667.16
2023-03-04T01:52:32.023Z,97661.22
2023-03-04T01:55:02.080Z,97658.94
2023-03-04T01:57:34.728Z,97663.84
2023-03-04T02:00:25.712Z,97655.50
2023-03-04T02:02:55.727Z,97645.91
2023-03-04T02:05:24.728Z,97652.72
2023-03-04T02:07:54.115Z,97645.09
2023-03-04T02:10:24.004Z,97643.25
2023-03-04T02:12:52.813Z,97646.31
2023-03-04T02:15:21.613Z,97639.38
2023-03-04T02:17:50.145Z,97636.56
2023-03-04T02:20:30.162Z,97647.47
2023-03-04T02:23:03.404Z,97630.91
2023-03-04T02:25:38.361Z,97630.19
2023-03-04T02:28:08.338Z,97625.75
2023-03-04T02:30:36.687Z,97623.34
2023-03-04T02:33:04.967Z,97622.94
2023-03-04T02:35:33.514Z,97614.78
2023-03-04T02:38:01.801Z,97620.94
2023-03-04T02:40:32.209Z,97610.16
2023-03-04T02:43:01.612Z,97610.84
2023-03-04T02:45:44.004Z,97608.03
2023-03-04T02:48:13.402Z,97612.13
2023-03-04T02:50:44.439Z,97606.53
2023-03-04T02:53:12.806Z,97603.84
2023-03-04T02:55:42.447Z,97597.31
2023-03-04T02:58:12.798Z,97598.78
2023-03-04T03:00:42.588Z,97596.81
2023-03-04T03:03:11.264Z,97596.31
2023-03-04T03:05:39.708Z,97594.66
2023-03-04T03:08:09.510Z,97592.78
2023-03-04T03:10:37.832Z,97584.25
2023-03-04T03:13:07.862Z,97597.47
2023-03-04T03:15:36.570Z,97591.31
2023-03-04T03:18:06.267Z,97584.72
2023-03-04T03:20:34.478Z,97591.25
2023-03-04T03:23:03.333Z,97588.91
2023-03-04T03:25:31.831Z,97583.94
2023-03-04T03:28:00.382Z,97586.72
2023-03-04T03:30:29.553Z,97583.03
2023-03-04T03:32:58.169Z,97576.38
2023-03-04T03:35:28.358Z,97586.91
2023-03-04T03:37:56.614Z,97578.44
2023-03-04T03:40:24.964Z,97572.44
2023-03-04T03:42:53.196Z,97575.31
2023-03-04T03:45:21.472Z,97576.22
2023-03-04T03:47:49.759Z,97575.63
2023-03-04T03:50:18.269Z,97568.13
2023-03-04T03:52:48.138Z,97570.25
2023-03-04T03:55:16.520Z,97567.09
2023-03-04T03:57:44.867Z,97561.00
2023-03-04T04:00:14.426Z,97558.56
2023-03-04T04:02:42.747Z,97565.50
2023-03-04T04:05:12.107Z,97559.16
2023-03-04T04:07:41.802Z,97561.94
2023-03-04T04:10:12.576Z,97564.75
2023-03-04T04:12:40.837Z,97564.59
2023-03-04T04:15:11.690Z,97569.47
2023-03-04T04:17:40.578Z,97564.19
2023-03-04T04:20:11.998Z,97561.56
2023-03-04T04:22:40.275Z,97560.06
2023-03-04T04:25:10.726Z,97563.38
2023-03-04T04:27:40.529Z,97561.28
2023-03-04T04:30:09.704Z,97564.50
2023-03-04T04:32:37.884Z,97564.28
2023-03-04T04:35:06.959Z,97566.72
2023-03-04T04:37:35.367Z,97569.97
2023-03-04T04:40:04.218Z,97571.47
2023-03-04T04:42:32.566Z,97566.09
2023-03-04T04:45:02.339Z,97571.09
2023-03-04T04:47:31.732Z,97564.09
2023-03-04T04:49:59.974Z,97566.38
2023-03-04T04:52:28.173Z,97563.72
2023-03-04T04:54:56.428Z,97562.78
2023-03-04T04:57:24.705Z,97564.56
2023-03-04T04:59:53.196Z,97557.56
2023-03-04T05:02:22.843Z,97554.53
2023-03-04T05:04:51.095Z,97554.25
2023-03-04T05:07:19.563Z,97556.78
2023-03-04T05:09:47.827Z,97551.50
2023-03-04T05:12:16.058Z,97551.91
2023-03-04T05:14:44.457Z,97555.59
2023-03-04T05:17:12.751Z,97558.22
2023-03-04T05:19:42.383Z,97560.59
2023-03-04T05:22:10.619Z,97554.56
2023-03-04T05:24:38.863Z,97552.47
2023-03-04T05:27:07.130Z,97557.13
2023-03-04T05:29:35.698Z,97548.44
2023-03-04T05:32:03.980Z,97562.41
2023-03-04T05:34:33.276Z,97550.53
2023-03-04T05:37:02.894Z,97554.97
2023-03-04T05:39:31.157Z,97555.69
2023-03-04T05:41:59.385Z,97557.25
2023-03-04T05:44:27.632Z,97553.16
2023-03-04T05:46:55.864Z,97551.38
2023-03-04T05:49:24.331Z,97545.31
2023-03-04T05:51:53.437Z,97555.28
2023-03-04T05:54:23.039Z,97559.50
2023-03-04T05:56:51.296Z,97552.47
2023-03-04T05:59:21.660Z,97560.41
2023-03-04T06:01:49.987Z,97554.28
2023-03-04T06:04:18.230Z,97560.59
2023-03-04T06:06:47.436Z,97559.28
2023-03-04T06:09:15.991Z,97559.63
2023-03-04T06:11:45.561Z,97563.22
2023-03-04T06:14:13.887Z,97564.22
2023-03-04T06:16:42.105Z,97564.50
2023-03-04T06:19:10.355Z,97566.44
2023-03-04T06:21:38.625Z,97568.47
2023-03-04T06:24:07.461Z,97571.38
2023-03-04T06:26:35.806Z,97572.69
2023-03-04T06:29:05.823Z,97577.00
2023-03-04T06:31:34.347Z,97571.88
2023-03-04T06:34:02.602Z,97580.91
2023-03-04T06:36:30.849Z,97575.03
2023-03-04T06:38:59.170Z,97578.69
2023-03-04T06:41:27.508Z,97580.63
2023-03-04T06:43:55.926Z,97579.44
2023-03-04T06:46:25.627Z,97585.06
2023-03-04T06:48:53.972Z,97582.25
2023-03-04T06:51:22.271Z,97589.72
2023-03-04T06:53:50.491Z,97583.31
2023-03-04T06:56:18.987Z,97584.56
2023-03-04T06:58:47.840Z,97584.09
2023-03-04T07:01:17.678Z,97576.22
2023-03-04T07:03:48.080Z,97569.00
2023-03-04T07:06:17.728Z,97565.25
2023-03-04T07:08:46.585Z,97569.16
2023-03-04T07:11:15.848Z,97570.53
2023-03-04T07:13:44.224Z,97571.81
2023-03-04T07:16:14.042Z,97562.91
2023-03-04T07:18:42.610Z,97564.59
2023-03-04T07:21:12.454Z,97562.13
2023-03-04T07:23:40.804Z,97565.88
2023-03-04T07:26:09.375Z,97567.94
2023-03-04T07:28:38.427Z,97568.56
2023-03-04T07:31:11.851Z,97554.19
2023-03-04T07:33:40.094Z,97559.53
2023-03-04T07:36:08.547Z,97542.50
2023-03-04T07:38:38.261Z,97554.44
2023-03-04T07:41:06.790Z,97549.97
2023-03-04T07:43:35.055Z,97553.72
2023-03-04T07:46:03.343Z,97553.53
2023-03-04T07:48:31.603Z,97554.16
2023-03-04T07:51:08.393Z,97550.97
2023-03-04T07:53:39.073Z,97548.09
2023-03-04T07:56:09.556Z,97548.00
2023-03-04T07:58:37.849Z,97547.25
2023-03-04T08:01:10.967Z,97541.31
2023-03-04T08:03:39.253Z,97538.16
2023-03-04T08:06:08.664Z,97537.50
2023-03-04T08:08:38.625Z,97532.00
2023-03-04T08:11:08.174Z,97536.38
2023-03-04T08:13:36.934Z,97533.69
2023-03-04T08:16:05.839Z,97530.78
2023-03-04T08:18:34.361Z,97525.69
2023-03-04T08:21:02.912Z,97529.69
2023-03-04T08:23:31.218Z,97515.69
2023-03-04T08:26:00.833Z,97514.41
2023-03-04T08:28:29.093Z,97506.75
2023-03-04T08:30:57.383Z,97500.38
2023-03-04T08:33:25.690Z,97496.78
2023-03-04T08:35:54.464Z,97498.38
2023-03-04T08:38:22.669Z,97484.97
2023-03-04T08:40:54.409Z,97488.91
2023-03-04T08:43:24.884Z,97477.56
2023-03-04T08:45:54.179Z,97479.50
2023-03-04T08:48:22.497Z,97469.66
2023-03-04T08:50:51.282Z,97470.50
2023-03-04T08:53:20.558Z,97464.56
2023-03-04T08:55:49.340Z,97466.34
2023-03-04T08:58:17.557Z,97463.06
2023-03-04T09:00:49.458Z,97459.09
2023-03-04T09:03:19.552Z,97443.97
2023-03-04T09:05:49.223Z,97446.47
2023-03-04T09:08:18.088Z,97449.28
2023-03-04T09:10:47.290Z,97446.28
2023-03-04T09:13:16.293Z,97446.31
2023-03-04T09:15:47.516Z,97440.44
2023-03-04T09:18:16.348Z,97442.38
2023-03-04T09:20:44.639Z,97438.22
2023-03-04T09:23:13.029Z,97428.28
2023-03-04T09:25:41.978Z,97430.22
2023-03-04T09:28:10.236Z,97420.72
2023-03-04T09:30:38.537Z,97412.28
2023-03-04T09:33:08.362Z,97416.69
2023-03-04T09:35:36.831Z,97417.66
2023-03-04T09:38:05.320Z,97407.41
2023-03-04T09:40:35.942Z,97405.72
2023-03-04T09:43:05.530Z,97403.13
2023-03-04T09:45:38.183Z,97401.44
2023-03-04T09:48:08.709Z,97399.66
2023-03-04T09:50:40.954Z,97395.31
2023-03-04T09:53:18.398Z,97390.19
2023-03-04T09:55:51.588Z,97393.44
2023-03-04T09:58:30.562Z,97382.22
2023-03-04T10:01:05.194Z,97383.03
2023-03-04T10:03:44.135Z,97378.78
2023-03-04T10:06:14.883Z,97377.00
2023-03-04T10:08:47.816Z,97376.84
2023-03-04T10:11:18.429Z,97360.88
2023-03-04T10:13:59.697Z,97355.91
2023-03-04T10:16:32.140Z,97352.53
2023-03-04T10:19:08.005Z,97349.97
2023-03-04T10:21:39.001Z,97350.81
2023-03-04T10:24:13.659Z,97347.16
2023-03-04T10:26:44.030Z,97341.75
2023-03-04T10:29:15.659Z,97330.34
2023-03-04T10:31:44.385Z,97331.94
2023-03-04T10:34:15.221Z,97320.03
2023-03-04T10:36:53.350Z,97327.50
2023-03-04T10:39:24.139Z,97320.84
2023-03-04T10:41:57.524Z,97322.00
2023-03-04T10:44:26.453Z,97314.50
2023-03-04T10:46:57.046Z,97310.38
2023-03-04T10:49:28.963Z,97305.44
2023-03-04T10:52:03.740Z,97303.19
2023-03-04T10:54:35.034Z,97303.06
2023-03-04T10:57:05.218Z,97300.91
2023-03-04T10:59:42.196Z,97289.13
2023-03-04T11:02:23.428Z,97291.66
2023-03-04T11:04:55.473Z,97286.72
2023-03-04T11:07:26.138Z,97286.44
2023-03-04T11:09:57.254Z,97289.03
2023-03-04T11:12:34.713Z,97275.44
2023-03-04T11:15:03.521Z,97282.63
2023-03-04T11:17:43.859Z,97268.56
2023-03-04T11:20:16.143Z,97270.09
2023-03-04T11:22:47.076Z,97258.41
2023-03-04T11:25:25.216Z,97256.56
2023-03-04T11:27:55.338Z,97251.34
2023-03-04T11:30:30.967Z,97253.31
2023-03-04T11:33:06.610Z,97245.44
2023-03-04T11:35:43.699Z,97248.59
2023-03-04T11:38:18.700Z,97237.38
2023-03-04T11:40:49.769Z,97236.38
2023-03-04T11:43:19.934Z,97236.69
2023-03-04T11:46:17.300Z,97229.28
2023-03-04T11:48:52.355Z,97220.22
2023-03-04T11:51:25.862Z,97220.69
2023-03-04T11:54:02.292Z,97212.88
2023-03-04T11:56:34.247Z,97212.38
2023-03-04T11:59:31.987Z,97208.13
2023-03-04T12:02:16.710Z,97205.28
2023-03-04T12:05:10.314Z,97203.44
2023-03-04T12:07:48.144Z,97210.91
2023-03-04T12:10:26.101Z,97196.63
2023-03-04T12:13:36.406Z,97199.06
2023-03-04T12:16:17.186Z,97190.22
2023-03-04T12:18:56.074Z,97188.66
2023-03-04T12:21:47.509Z,97187.28
2023-03-04T12:24:31.476Z,97173.75
2023-03-04T12:27:04.690Z,97173.84
2023-03-04T12:29:39.331Z,97174.66
2023-03-04T12:32:13.472Z,97177.09
2023-03-04T12:35:04.985Z,97170.19
2023-03-04T12:37:50.941Z,97156.50
2023-03-04T12:40:29.775Z,97155.91
2023-03-04T12:43:35.636Z,97148.13
2023-03-04T12:46:12.980Z,97148.19
2023-03-04T12:48:43.721Z,97139.34
2023-03-04T12:51:24.564Z,97137.97
2023-03-04T12:53:59.777Z,97130.38
2023-03-04T12:56:34.491Z,97133.00
2023-03-04T12:59:03.243Z,97130.63
2023-03-04T13:01:34.780Z,97132.63
2023-03-04T13:04:06.497Z,97127.97
2023-03-04T13:06:43.441Z,97124.06
2023-03-04T13:09:18.836Z,97122.56
2023-03-04T13:11:54.845Z,97114.75
2023-03-04T13:14:32.049Z,97122.75
2023-03-04T13:17:02.336Z,97115.03
2023-03-04T13:19:49.019Z,97112.09
2023-03-04T13:22:31.785Z,97112.53
2023-03-04T13:25:01.446Z,97103.22
2023-03-04T13:28:08.338Z,97101.84
2023-03-04T13:31:08.867Z,97103.44
2023-03-04T13:34:03.420Z,97094.88
2023-03-04T13:36:59.313Z,97087.66
2023-03-04T13:39:35.739Z,97093.06
2023-03-04T13:42:19.552Z,97083.56
2023-03-04T13:45:30.941Z,97082.19
2023-03-04T13:47:59.420Z,97081.25
2023-03-04T13:50:37.563Z,97081.97
2023-03-04T13:53:42.853Z,97070.53
2023-03-04T13:56:37.431Z,97070.81
2023-03-04T13:59:25.429Z,97060.16
2023-03-04T14:02:02.369Z,97067.84
2023-03-04T14:04:34.652Z,97062.13
2023-03-04T14:07:04.475Z,97050.75
2023-03-04T14:09:34.914Z,97052.13
2023-03-04T14:12:05.301Z,97052.19
2023-03-04T14:14:37.932Z,97043.16
2023-03-04T14:17:08.434Z,97046.13
2023-03-04T14:19:40.733Z,97045.13
2023-03-04T14:22:22.564Z,97040.16
2023-03-04T14:25:02.097Z,97042.69
2023-03-04T14:27:33.082Z,97046.22
2023-03-04T14:30:03.718Z,97043.25
2023-03-04T14:32:33.864Z,97032.53
2023-03-04T14:35:04.966Z,97033.38
2023-03-04T14:37:40.325Z,97028.53
2023-03-04T14:40:10.572Z,97034.41
2023-03-04T14:42:42.019Z,97032.00
2023-03-04T14:45:14.178Z,97029.16
2023-03-04T14:47:47.550Z,97032.69
2023-03-04T14:50:18.391Z,97028.69
2023-03-04T14:52:48.756Z,97029.69
2023-03-04T14:55:24.880Z,97027.19
2023-03-04T14:57:58.639Z,97032.56
2023-03-04T15:00:32.341Z,97025.00
2023-03-04T15:03:03.889Z,97028.09
2023-03-04T15:05:33.900Z,97028.69
2023-03-04T15:08:05.163Z,97026.88
2023-03-04T15:10:36.087Z,97023.00
2023-03-04T15:13:06.881Z,97017.78
2023-03-04T15:15:39.956Z,97015.41
2023-03-04T15:18:27.374Z,97016.66
2023-03-04T15:20:57.551Z,97014.66
2023-03-04T15:23:27.520Z,97017.00
2023-03-04T15:25:57.890Z,97024.28
2023-03-04T15:28:36.023Z,97023.06
2023-03-04T15:31:05.450Z,97018.59
2023-03-04T15:33:36.021Z,97017.41
2023-03-04T15:36:05.981Z,97016.81
2023-03-04T15:38:35.364Z,97017.31
2023-03-04T15:41:04.265Z,97021.09
2023-03-04T15:43:32.827Z,97016.06
2023-03-04T15:46:02.264Z,97020.06
2023-03-04T15:48:31.266Z,97021.81
2023-03-04T15:51:02.939Z,97024.53
2023-03-04T15:53:34.870Z,97017.59
2023-03-04T15:56:04.286Z,97019.91
2023-03-04T15:58:37.183Z,97021.00
2023-03-04T16:01:05.900Z,97020.28
2023-03-04T16:03:35.235Z,97020.34
2023-03-04T16:06:06.063Z,97022.88
2023-03-04T16:08:35.850Z,97015.53
2023-03-04T16:11:04.443Z,97029.59
2023-03-04T16:13:33.325Z,97027.53
2023-03-04T16:16:03.006Z,97027.25
2023-03-04T16:18:32.347Z,97032.72
2023-03-04T16:21:02.093Z,97035.97
2023-03-04T16:23:34.771Z,97030.69
2023-03-04T16:26:03.619Z,97038.38
2023-03-04T16:28:32.176Z,97033.25
2023-03-04T16:31:00.659Z,97040.22
2023-03-04T16:33:29.774Z,97042.25
2023-03-04T16:35:59.799Z,97036.91
2023-03-04T16:38:34.141Z,97049.28
2023-03-04T16:41:04.737Z,97048.44
2023-03-04T16:43:34.131Z,97053.31
2023-03-04T16:46:03.055Z,97056.00
2023-03-04T16:48:32.249Z,97049.59
2023-03-04T16:51:00.931Z,97053.25
2023-03-04T16:53:35.383Z,97054.31
2023-03-04T16:56:07.567Z,97051.66
2023-03-04T16:58:37.165Z,97068.72
2023-03-04T17:01:06.684Z,97061.78
2023-03-04T17:03:35.044Z,97070.66
2023-03-04T17:06:03.831Z,97070.06
2023-03-04T17:08:37.166Z,97072.13
2023-03-04T17:11:06.438Z,97068.06
2023-03-04T17:13:35.455Z,97069.44
2023-03-04T17:16:05.957Z,97079.94
2023-03-04T17:18:34.855Z,97075.00
2023-03-04T17:21:05.640Z,97076.94
2023-03-04T17:23:36.285Z,97077.91
2023-03-04T17:26:06.252Z,97084.03
2023-03-04T17:28:36.527Z,97091.84
2023-03-04T17:31:11.188Z,97097.84
2023-03-04T17:33:40.983Z,97095.34
2023-03-04T17:36:12.007Z,97101.50
2023-03-04T17:38:43.406Z,97111.88
2023-03-04T17:41:16.451Z,97105.03
2023-03-04T17:43:46.613Z,97115.31
2023-03-04T17:46:19.147Z,97112.81
2023-03-04T17:48:48.487Z,97117.09
2023-03-04T17:51:19.895Z,97115.41
2023-03-04T17:53:52.506Z,97123.13
2023-03-04T17:56:22.478Z,97110.25
2023-03-04T17:58:52.131Z,97116.25
2023-03-04T18:01:22.658Z,97128.25
2023-03-04T18:03:54.242Z,97123.97
2023-03-04T18:06:25.409Z,97128.28
2023-03-04T18:08:56.692Z,97128.25
2023-03-04T18:11:27.876Z,97129.13
2023-03-04T18:13:59.384Z,97127.41
2023-03-04T18:16:29.979Z,97138.53
2023-03-04T18:19:02.860Z,97133.41
2023-03-04T18:21:32.913Z,97134.25
2023-03-04T18:24:05.814Z,97129.91
2023-03-04T18:26:35.718Z,97130.75
2023-03-04T18:29:10.840Z,97133.25
2023-03-04T18:31:40.811Z,97125.66
2023-03-04T18:34:11.048Z,97133.28
2023-03-04T18:36:40.986Z,97134.88
2023-03-04T18:39:13.871Z,97145.97
2023-03-04T18:41:44.580Z,97136.44
2023-03-04T18:44:19.112Z,97144.16
2023-03-04T18:46:52.437Z,97141.69
2023-03-04T18:49:24.702Z,97139.91
2023-03-04T18:51:55.218Z,97145.84
2023-03-04T18:54:26.838Z,97143.16
2023-03-04T18:56:59.084Z,97149.91
2023-03-04T18:59:32.748Z,97150.66
2023-03-04T19:02:06.094Z,97153.16
2023-03-04T19:04:37.311Z,97166.06
2023-03-04T19:07:06.887Z,97160.13
2023-03-04T19:09:39.694Z,97153.13
2023-03-04T19:12:10.477Z,97164.09
2023-03-04T19:14:41.174Z,97162.34
2023-03-04T19:17:13.071Z,97163.19
2023-03-04T19:19:42.983Z,97160.69
2023-03-04T19:22:14.455Z,97152.16
2023-03-04T19:24:47.868Z,97153.25
2023-03-04T19:27:18.709Z,97145.69
2023-03-04T19:29:49.688Z,97149.19
2023-03-04T19:32:19.953Z,97144.06
2023-03-04T19:34:50.092Z,97140.84
2023-03-04T19:37:20.315Z,97140.91
2023-03-04T19:39:53.129Z,97137.47
2023-03-04T19:42:28.578Z,97146.88
2023-03-04T19:45:03.576Z,97139.19
2023-03-04T19:47:33.831Z,97150.38
2023-03-04T19:50:04.702Z,97147.84
2023-03-04T19:52:34.903Z,97157.34
2023-03-04T19:55:06.664Z,97160.75
2023-03-04T19:57:36.543Z,97152.22
2023-03-04T20:00:06.491Z,97156.47
2023-03-04T20:02:36.270Z,97164.16
2023-03-04T20:05:06.356Z,97159.88
2023-03-04T20:07:36.902Z,97171.97
2023-03-04T20:10:09.364Z,97171.13
2023-03-04T20:12:39.104Z,97174.50
2023-03-04T20:15:10.824Z,97177.09
2023-03-04T20:17:40.918Z,97183.13
2023-03-04T20:20:14.399Z,97184.88
2023-03-04T20:22:44.002Z,97184.84
2023-03-04T20:25:15.301Z,97183.16
2023-03-04T20:27:44.389Z,97185.66
2023-03-04T20:30:15.564Z,97187.25
2023-03-04T20:32:45.433Z,97192.22
2023-03-04T20:35:17.095Z,97185.16
2023-03-04T20:37:47.823Z,97200.38
2023-03-04T20:40:19.532Z,97199.25
2023-03-04T20:42:49.682Z,97202.50
2023-03-04T20:45:20.900Z,97206.56
2023-03-04T20:47:50.901Z,97208.03
2023-03-04T20:50:20.759Z,97202.75
2023-03-04T20:52:50.485Z,97203.44
2023-03-04T20:55:22.074Z,97211.03
2023-03-04T20:57:51.492Z,97213.56
2023-03-04T21:00:21.684Z,97210.78
2023-03-04T21:02:51.269Z,97212.34
2023-03-04T21:05:20.778Z,97208.81
2023-03-04T21:07:50.309Z,97210.44
2023-03-04T21:10:28.112Z,97211.97
2023-03-04T21:12:57.016Z,97217.09
2023-03-04T21:15:25.712Z,97220.47
2023-03-04T21:17:54.475Z,97225.72
2023-03-04T21:20:23.900Z,97220.34
2023-03-04T21:22:53.294Z,97221.88
2023-03-04T21:25:25.768Z,97221.56
2023-03-04T21:27:54.581Z,97217.97
2023-03-04T21:30:23.697Z,97226.31
2023-03-04T21:32:54.289Z,97227.00
2023-03-04T21:35:23.191Z,97233.63
2023-03-04T21:37:54.457Z,97235.97
2023-03-04T21:40:26.074Z,97235.56
2023-03-04T21:42:55.184Z,97223.31
2023-03-04T21:45:23.875Z,97231.63
2023-03-04T21:47:52.640Z,97229.84
2023-03-04T21:50:21.538Z,97229.00
2023-03-04T21:52:50.415Z,97223.72
2023-03-04T21:55:18.949Z,97222.81
2023-03-04T21:57:49.465Z,97230.28
2023-03-04T22:00:19.249Z,97223.38
2023-03-04T22:02:47.976Z,97234.38
2023-03-04T22:05:17.934Z,97240.34
2023-03-04T22:07:47.599Z,97237.66
2023-03-04T22:10:16.407Z,97238.47
2023-03-04T22:12:45.370Z,97237.72
2023-03-04T22:15:15.088Z,97235.91
2023-03-04T22:17:45.881Z,97238.28
2023-03-04T22:20:15.648Z,97236.81
2023-03-04T22:22:43.998Z,97243.75
2023-03-04T22:25:12.460Z,97256.19
2023-03-04T22:27:40.744Z,97262.69
2023-03-04T22:30:10.545Z,97266.88
2023-03-04T22:32:40.296Z,97263.41
2023-03-04T22:35:09.160Z,97262.31
2023-03-04T22:37:37.452Z,97272.56
2023-03-04T22:40:06.773Z,97272.56
2023-03-04T22:42:35.362Z,97273.28
2023-03-04T22:45:03.608Z,97277.34
2023-03-04T22:47:31.913Z,97286.56
2023-03-04T22:50:01.572Z,97285.50
2023-03-04T22:52:29.935Z,97292.22
2023-03-04T22:54:58.242Z,97304.78
2023-03-04T22:57:26.574Z,97296.84
2023-03-04T22:59:54.875Z,97304.41
2023-03-04T23:02:23.344Z,97305.84
2023-03-04T23:04:51.569Z,97308.44
2023-03-04T23:07:21.241Z,97307.38
2023-03-04T23:09:49.618Z,97311.38
2023-03-04T23:12:17.869Z,97311.16
2023-03-04T23:14:46.158Z,97314.44
2023-03-04T23:17:14.561Z,97306.69
2023-03-04T23:19:43.001Z,97317.53
2023-03-04T23:22:11.229Z,97320.59
2023-03-04T23:24:40.874Z,97323.78
2023-03-04T23:27:09.133Z,97322.03
2023-03-04T23:29:37.412Z,97327.06
2023-03-04T23:32:06.131Z,97333.69
2023-03-04T23:34:34.394Z,97322.66
2023-03-04T23:37:02.620Z,97326.00
2023-03-04T23:39:30.908Z,97331.97
2023-03-04T23:42:00.599Z,97334.31
2023-03-04T23:44:28.809Z,97336.66
2023-03-04T23:46:57.047Z,97345.09
2023-03-04T23:49:25.451Z,97350.16
2023-03-04T23:51:53.733Z,97345.59
2023-03-04T23:54:22.079Z,97358.13
2023-03-04T23:56:50.340Z,97355.41
2023-03-04T23:59:20.101Z,97357.72
